Time;durP1;ratioP1;P1;durP2;ratioP2;P2;SDS_P1;SDS_P2;PMS_P1;PMS_P2;Temp;Humidity;BMP_temperature;BMP_pressure;BME280_temperature;BME280_humidity;BME280_pressure;Samples;Min_cycle;Max_cycle;Signal;HPM_P1;HPM_P2
2023/04/04 00:04:41;;;;;;;1.83;0.68;;;9.60;83.30;;;;;;10414568;28;20027;-64
2023/04/04 00:09:42;;;;;;;2.53;0.98;;;9.60;83.40;;;;;;10410241;28;20049;-65
2023/04/04 00:14:43;;;;;;;2.95;0.95;;;9.60;83.50;;;;;;10414695;28;20209;-64
2023/04/04 00:19:43;;;;;;;3.05;1.02;;;9.60;83.60;;;;;;10412503;28;20083;-64
2023/04/04 00:24:45;;;;;;;2.38;0.77;;;9.50;83.60;;;;;;10403657;28;20009;-64
2023/04/04 00:29:45;;;;;;;2.90;0.90;;;9.50;83.70;;;;;;10414213;28;20029;-63
2023/04/04 00:34:52;;;;;;;1.42;0.82;;;9.50;83.80;;;;;;10413700;28;20031;-64
2023/04/04 00:39:52;;;;;;;1.35;0.90;;;9.40;83.90;;;;;;10412415;28;20049;-64
2023/04/04 00:44:53;;;;;;;1.10;0.75;;;9.40;83.90;;;;;;10413473;28;20389;-65
2023/04/04 00:49:54;;;;;;;2.17;1.00;;;9.40;84.10;;;;;;10407921;28;20013;-64
2023/04/04 00:54:55;;;;;;;2.80;0.88;;;9.30;84.10;;;;;;10404024;28;20436;-64
2023/04/04 00:59:57;;;;;;;2.35;1.15;;;9.30;84.30;;;;;;10415275;28;20096;-64
2023/04/04 01:04:59;;;;;;;1.38;0.85;;;9.30;84.30;;;;;;10411708;28;20065;-64
2023/04/04 01:10:01;;;;;;;2.75;1.35;;;9.30;84.50;;;;;;10409626;28;20326;-64
2023/04/04 01:15:01;;;;;;;2.70;0.90;;;9.20;84.50;;;;;;10409136;28;20021;-64
2023/04/04 01:20:15;;;;;;;2.25;0.80;;;9.20;84.70;;;;;;10412680;28;20045;-64
2023/04/04 01:25:17;;;;;;;4.10;1.10;;;9.20;84.80;;;;;;10397178;28;20017;-64
2023/04/04 01:30:18;;;;;;;1.95;1.10;;;9.10;84.80;;;;;;10405884;28;20013;-65
2023/04/04 01:35:42;;;;;;;2.63;1.23;;;9.10;85.00;;;;;;10409465;28;20041;-63
2023/04/04 01:40:48;;;;;;;2.72;1.20;;;9.10;85.00;;;;;;10410996;28;20572;-64
2023/04/04 01:45:49;;;;;;;2.50;1.17;;;9.10;85.20;;;;;;10402539;28;20030;-65
2023/04/04 01:50:50;;;;;;;2.30;1.30;;;9.00;85.20;;;;;;10410517;28;20029;-64
2023/04/04 01:55:51;;;;;;;1.63;0.90;;;9.00;85.30;;;;;;10404548;28;20036;-63
2023/04/04 02:00:51;;;;;;;2.53;1.20;;;9.00;85.50;;;;;;10404082;28;20037;-64
2023/04/04 02:05:52;;;;;;;4.25;1.35;;;8.90;85.50;;;;;;10412753;28;20461;-65
2023/04/04 02:10:57;;;;;;;2.50;1.20;;;8.90;85.60;;;;;;10416323;28;20079;-63
2023/04/04 02:15:57;;;;;;;2.53;1.20;;;8.90;85.70;;;;;;10420304;28;20342;-64
2023/04/04 02:20:59;;;;;;;2.72;1.25;;;8.90;85.90;;;;;;10417417;28;20480;-64
2023/04/04 02:26:00;;;;;;;2.40;1.20;;;8.90;86.00;;;;;;10418050;28;20025;-65
2023/04/04 02:31:01;;;;;;;2.42;1.17;;;8.80;86.00;;;;;;10416946;28;20463;-63
2023/04/04 02:36:02;;;;;;;3.20;1.00;;;8.70;86.10;;;;;;10413139;28;20029;-63
2023/04/04 02:41:03;;;;;;;2.58;1.50;;;8.70;86.20;;;;;;10424241;28;20048;-64
2023/04/04 02:46:03;;;;;;;2.22;1.30;;;8.70;86.30;;;;;;10415008;28;20443;-64
2023/04/04 02:51:04;;;;;;;2.17;1.30;;;8.70;86.40;;;;;;10418413;28;20038;-63
2023/04/04 02:56:05;;;;;;;2.45;1.33;;;8.70;86.50;;;;;;10414127;28;20029;-64
2023/04/04 03:01:05;;;;;;;2.25;1.30;;;8.60;86.60;;;;;;10422257;28;20013;-64
2023/04/04 03:06:06;;;;;;;4.47;1.80;;;8.60;86.60;;;;;;10424725;28;20036;-65
2023/04/04 03:11:07;;;;;;;3.22;1.60;;;8.60;86.80;;;;;;10418470;28;20017;-64
2023/04/04 03:16:09;;;;;;;2.47;1.40;;;8.60;86.80;;;;;;10411124;28;20402;-64
2023/04/04 03:21:09;;;;;;;2.67;1.40;;;8.50;86.80;;;;;;10417976;28;20523;-64
2023/04/04 03:26:10;;;;;;;3.85;1.77;;;8.50;87.00;;;;;;10413714;28;20034;-64
2023/04/04 03:31:10;;;;;;;2.33;1.50;;;8.50;87.00;;;;;;10413260;28;20078;-63
2023/04/04 03:36:14;;;;;;;3.38;1.48;;;8.50;87.10;;;;;;10412847;28;20033;-64
2023/04/04 03:41:15;;;;;;;3.72;1.60;;;8.40;87.10;;;;;;10418460;28;20029;-65
2023/04/04 03:46:15;;;;;;;2.35;1.40;;;8.40;87.20;;;;;;10405191;28;20024;-64
2023/04/04 03:51:24;;;;;;;2.88;1.38;;;8.40;87.20;;;;;;10412710;28;20033;-64
2023/04/04 03:56:26;;;;;;;3.85;1.63;;;8.40;87.30;;;;;;10418560;28;20021;-64
2023/04/04 04:01:26;;;;;;;2.90;1.90;;;8.30;87.30;;;;;;10410291;28;20265;-65
2023/04/04 04:06:27;;;;;;;2.72;1.40;;;8.30;87.30;;;;;;10417660;28;20105;-65
2023/04/04 04:11:28;;;;;;;3.95;1.70;;;8.30;87.40;;;;;;10408438;28;20025;-64
2023/04/04 04:16:28;;;;;;;2.85;1.65;;;8.30;87.50;;;;;;10409506;28;20021;-64
2023/04/04 04:21:29;;;;;;;5.05;1.60;;;8.30;87.60;;;;;;10410529;28;20041;-64
2023/04/04 04:26:30;;;;;;;3.70;1.58;;;8.20;87.50;;;;;;10416817;28;20018;-64
2023/04/04 04:31:30;;;;;;;2.60;1.45;;;8.20;87.60;;;;;;10408555;28;20022;-64
2023/04/04 04:36:31;;;;;;;1.98;1.30;;;8.20;87.60;;;;;;10404654;28;20104;-64
2023/04/04 04:41:32;;;;;;;3.10;1.50;;;8.20;87.60;;;;;;10416047;28;20040;-63
2023/04/04 04:46:32;;;;;;;2.42;1.38;;;8.20;87.70;;;;;;10409365;28;20034;-64
2023/04/04 04:51:33;;;;;;;3.35;1.45;;;8.10;87.70;;;;;;10404424;28;20489;-64
2023/04/04 04:56:34;;;;;;;3.83;1.48;;;8.10;87.70;;;;;;10412770;28;20037;-63
2023/04/04 05:01:35;;;;;;;4.22;1.58;;;8.10;87.80;;;;;;10409283;28;20116;-64
2023/04/04 05:06:37;;;;;;;3.15;1.50;;;8.10;87.80;;;;;;10423580;28;20037;-64
2023/04/04 05:11:37;;;;;;;2.10;1.60;;;8.00;87.80;;;;;;10405103;28;20049;-64
2023/04/04 05:16:38;;;;;;;2.95;1.80;;;8.00;87.80;;;;;;10409547;28;20100;-64
2023/04/04 05:21:38;;;;;;;2.40;1.38;;;8.00;87.80;;;;;;10409379;28;20021;-64
2023/04/04 05:26:39;;;;;;;7.13;2.00;;;8.00;87.80;;;;;;10404513;28;20114;-65
2023/04/04 05:31:40;;;;;;;4.68;2.08;;;8.00;88.00;;;;;;10404064;28;20021;-64
2023/04/04 05:36:40;;;;;;;4.90;1.85;;;8.00;87.90;;;;;;10408797;28;20463;-64
2023/04/04 05:41:41;;;;;;;6.18;2.22;;;8.00;88.00;;;;;;10410975;28;20028;-64
2023/04/04 05:46:42;;;;;;;3.20;2.03;;;8.00;87.90;;;;;;10403279;28;20021;-63
2023/04/04 05:51:42;;;;;;;4.32;2.05;;;8.00;87.90;;;;;;10407255;28;20428;-64
2023/04/04 05:56:43;;;;;;;4.45;2.60;;;8.00;87.90;;;;;;10406200;28;20513;-64
2023/04/04 06:01:44;;;;;;;4.75;2.67;;;8.00;88.00;;;;;;10399790;28;20497;-64
2023/04/04 06:06:45;;;;;;;5.47;2.80;;;8.00;87.90;;;;;;10401944;28;20036;-63
2023/04/04 06:11:46;;;;;;;5.82;2.75;;;8.00;87.90;;;;;;10408533;28;20021;-65
2023/04/04 06:16:46;;;;;;;6.05;2.95;;;8.00;87.90;;;;;;10412445;28;20028;-68
2023/04/04 06:21:47;;;;;;;7.20;2.60;;;8.00;87.90;;;;;;10409188;28;20072;-66
2023/04/04 06:26:50;;;;;;;4.82;2.72;;;8.00;88.00;;;;;;10418840;28;20029;-65
2023/04/04 06:31:51;;;;;;;4.35;2.80;;;7.90;87.90;;;;;;10411816;28;20025;-64
2023/04/04 06:36:51;;;;;;;4.80;2.55;;;7.90;88.00;;;;;;10410872;28;20037;-64
2023/04/04 06:41:52;;;;;;;5.05;2.60;;;7.90;87.90;;;;;;10405200;28;20014;-64
2023/04/04 06:46:53;;;;;;;6.05;3.05;;;7.90;87.90;;;;;;10402958;28;20521;-63
2023/04/04 06:51:53;;;;;;;3.97;2.38;;;7.90;87.90;;;;;;10412321;28;20562;-64
2023/04/04 06:56:54;;;;;;;3.10;2.25;;;7.90;87.90;;;;;;10416938;28;20018;-64
2023/04/04 07:01:56;;;;;;;4.97;2.60;;;7.90;87.80;;;;;;10413202;28;20612;-64
2023/04/04 07:06:56;;;;;;;4.45;2.42;;;8.00;87.90;;;;;;10417523;28;20438;-63
2023/04/04 07:11:57;;;;;;;4.95;2.20;;;8.00;87.90;;;;;;10397757;28;20095;-63
2023/04/04 07:16:58;;;;;;;4.03;2.00;;;8.00;87.80;;;;;;10401973;28;20102;-64
2023/04/04 07:21:58;;;;;;;4.18;2.10;;;8.10;87.80;;;;;;10418114;28;20026;-65
2023/04/04 07:26:59;;;;;;;3.60;2.08;;;8.20;87.70;;;;;;10412431;28;20382;-64
2023/04/04 07:32:00;;;;;;;4.47;2.10;;;8.20;87.70;;;;;;10413213;28;20310;-64
2023/04/04 07:37:00;;;;;;;3.30;2.03;;;8.20;87.60;;;;;;10413571;28;20086;-64
2023/04/04 07:42:01;;;;;;;3.72;2.15;;;8.30;87.60;;;;;;10413415;28;20017;-63
2023/04/04 07:47:01;;;;;;;3.22;1.77;;;8.30;87.50;;;;;;10407642;28;20024;-64
2023/04/04 07:52:03;;;;;;;2.90;1.77;;;8.40;87.50;;;;;;10410774;28;20029;-64
2023/04/04 07:57:04;;;;;;;4.32;2.00;;;8.50;87.40;;;;;;10418440;28;20029;-63
2023/04/04 08:02:05;;;;;;;4.47;1.85;;;8.60;87.30;;;;;;10410690;28;20115;-63
2023/04/04 08:07:05;;;;;;;3.17;1.98;;;8.60;87.20;;;;;;10410312;28;20025;-64
2023/04/04 08:12:06;;;;;;;3.97;1.80;;;8.70;87.30;;;;;;10417782;28;20481;-64
2023/04/04 08:17:07;;;;;;;4.68;2.03;;;8.70;87.20;;;;;;10412078;28;20029;-64
2023/04/04 08:22:08;;;;;;;3.70;1.52;;;8.70;87.20;;;;;;10420621;28;20025;-64
2023/04/04 08:27:09;;;;;;;3.22;1.83;;;8.70;87.30;;;;;;10407743;28;20129;-63
2023/04/04 08:32:09;;;;;;;4.57;1.80;;;8.70;87.90;;;;;;10410549;28;20063;-63
2023/04/04 08:37:10;;;;;;;3.42;1.58;;;8.70;87.50;;;;;;10411236;28;20519;-64
2023/04/04 08:42:13;;;;;;;2.45;1.70;;;8.80;87.60;;;;;;10399386;28;20024;-63
2023/04/04 08:47:15;;;;;;;2.67;1.60;;;8.80;87.60;;;;;;10406970;28;20522;-63
2023/04/04 08:52:20;;;;;;;2.70;1.30;;;8.80;87.70;;;;;;10410650;28;20018;-63
2023/04/04 08:57:21;;;;;;;3.70;1.40;;;8.80;87.80;;;;;;10412297;28;20024;-64
2023/04/04 09:02:39;;;;;;;1.70;1.10;;;8.80;87.90;;;;;;10422538;28;20389;-63
2023/04/04 09:07:39;;;;;;;3.42;1.65;;;8.80;87.90;;;;;;10409418;28;20439;-63
2023/04/04 09:12:44;;;;;;;3.38;1.80;;;8.90;88.00;;;;;;10412718;28;20075;-62
2023/04/04 09:17:44;;;;;;;2.78;1.20;;;8.90;87.90;;;;;;10408960;28;20486;-64
2023/04/04 09:22:45;;;;;;;2.50;1.17;;;8.90;87.80;;;;;;10403431;28;20034;-64
2023/04/04 09:27:48;;;;;;;1.80;1.33;;;9.00;87.80;;;;;;10396506;28;20033;-62
2023/04/04 09:32:48;;;;;;;2.70;1.45;;;9.00;87.80;;;;;;10397308;28;20083;-63
2023/04/04 09:37:51;;;;;;;2.28;1.33;;;9.10;87.70;;;;;;10402151;28;20038;-64
2023/04/04 09:42:54;;;;;;;2.78;1.10;;;9.10;87.70;;;;;;10413113;28;20492;-64
2023/04/04 09:47:55;;;;;;;2.30;0.90;;;9.10;87.60;;;;;;10411469;28;20075;-64
2023/04/04 09:52:58;;;;;;;3.92;1.10;;;9.20;87.70;;;;;;10403313;28;20041;-64
2023/04/04 09:58:01;;;;;;;1.17;1.05;;;9.20;87.50;;;;;;10410480;28;20021;-64
2023/04/04 10:03:02;;;;;;;2.58;1.17;;;9.30;87.60;;;;;;10401512;28;20400;-63
2023/04/04 10:08:16;;;;;;;2.03;1.00;;;9.30;87.60;;;;;;10409558;28;20025;-64
2023/04/04 10:13:30;;;;;;;2.53;1.00;;;9.30;87.70;;;;;;10416326;28;20021;-64
2023/04/04 10:18:32;;;;;;;3.10;0.93;;;9.40;87.60;;;;;;10402926;28;20108;-63
2023/04/04 10:23:34;;;;;;;1.65;1.05;;;9.40;87.60;;;;;;10406713;28;20026;-64
2023/04/04 10:28:35;;;;;;;2.92;0.80;;;9.50;87.60;;;;;;10424804;28;20520;-64
2023/04/04 10:34:11;;;;;;;2.40;1.10;;;9.50;87.50;;;;;;10417531;28;20175;-63
2023/04/04 10:39:26;;;;;;;2.83;1.23;;;9.60;87.50;;;;;;10422861;28;20029;-64
2023/04/04 10:44:32;;;;;;;1.52;1.00;;;9.60;87.30;;;;;;10417462;28;20057;-64
2023/04/04 10:49:33;;;;;;;2.00;1.00;;;9.70;87.40;;;;;;10414839;28;20033;-64
2023/04/04 10:54:34;;;;;;;2.67;0.90;;;9.80;87.40;;;;;;10421122;28;20029;-64
2023/04/04 10:59:54;;;;;;;2.65;1.00;;;9.80;87.20;;;;;;10411672;28;20083;-64
2023/04/04 11:05:14;;;;;;;1.80;1.02;;;9.90;87.20;;;;;;10410392;28;20022;-64
2023/04/04 11:10:22;;;;;;;3.75;1.33;;;10.00;87.00;;;;;;10407048;28;20076;-64
2023/04/04 11:15:25;;;;;;;2.13;0.80;;;10.10;86.80;;;;;;10409741;28;20095;-65
2023/04/04 11:20:36;;;;;;;1.73;0.90;;;10.10;86.50;;;;;;10412813;28;20033;-64
2023/04/04 11:25:48;;;;;;;2.28;0.82;;;10.20;86.40;;;;;;10410903;28;20029;-63
2023/04/04 11:31:18;;;;;;;2.28;0.90;;;10.30;86.40;;;;;;10405361;28;20112;-65
2023/04/04 11:42:02;;;;;;;1.35;0.98;;;10.40;86.30;;;;;;10410067;28;20068;-64
2023/04/04 11:47:05;;;;;;;2.13;0.65;;;10.50;86.10;;;;;;10418729;28;20459;-64
2023/04/04 11:52:30;;;;;;;1.73;0.85;;;10.60;86.70;;;;;;10405080;28;20018;-65
2023/04/04 11:57:32;;;;;;;1.30;0.88;;;10.60;86.00;;;;;;10418680;28;20535;-65
2023/04/04 12:02:34;;;;;;;2.22;1.08;;;10.70;86.00;;;;;;10410058;28;20025;-64
2023/04/04 12:07:35;;;;;;;1.23;0.80;;;10.80;86.00;;;;;;10410657;28;20108;-64
2023/04/04 12:12:38;;;;;;;2.22;1.05;;;10.80;86.00;;;;;;10414046;28;20555;-64
2023/04/04 12:17:40;;;;;;;1.38;0.80;;;10.90;85.90;;;;;;10410202;28;20294;-64
2023/04/04 12:22:40;;;;;;;2.28;0.90;;;11.00;86.40;;;;;;10413892;28;20086;-64
2023/04/04 12:27:41;;;;;;;2.90;0.93;;;11.00;85.80;;;;;;10405149;28;20238;-65
2023/04/04 12:32:44;;;;;;;1.70;1.15;;;11.10;85.90;;;;;;10411705;28;20485;-66
2023/04/04 12:38:06;;;;;;;1.80;0.95;;;11.10;85.70;;;;;;10414398;28;20053;-64
2023/04/04 12:43:07;;;;;;;3.67;1.77;;;11.30;85.50;;;;;;10411435;28;20276;-63
2023/04/04 12:48:16;;;;;;;2.70;1.08;;;11.30;85.40;;;;;;10406000;28;20021;-65
2023/04/04 12:53:25;;;;;;;2.78;0.90;;;11.40;85.20;;;;;;10412341;28;20079;-63
2023/04/04 12:58:26;;;;;;;1.92;1.08;;;11.40;85.30;;;;;;10395426;28;20526;-64
2023/04/04 13:03:27;;;;;;;7.32;1.20;;;11.40;85.50;;;;;;10405628;28;20022;-63
2023/04/04 13:08:28;;;;;;;2.40;1.00;;;11.40;85.70;;;;;;10398317;28;20021;-63
2023/04/04 13:13:35;;;;;;;2.25;1.17;;;11.50;85.90;;;;;;10414231;28;20025;-64
2023/04/04 13:18:40;;;;;;;3.60;1.17;;;11.50;85.80;;;;;;10405824;28;20113;-65
2023/04/04 13:23:41;;;;;;;1.73;1.08;;;11.50;86.10;;;;;;10411509;28;20017;-62
2023/04/04 13:28:41;;;;;;;4.20;1.10;;;11.60;86.40;;;;;;10416123;28;20025;-64
2023/04/04 13:33:42;;;;;;;1.95;0.90;;;11.70;86.50;;;;;;10398962;28;20594;-64
2023/04/04 13:38:43;;;;;;;3.53;1.33;;;11.70;86.60;;;;;;10408245;28;20670;-64
2023/04/04 13:43:43;;;;;;;3.60;1.48;;;11.70;85.80;;;;;;10402226;28;20030;-64
2023/04/04 13:48:44;;;;;;;1.52;1.00;;;11.80;86.20;;;;;;10398891;28;20029;-65
2023/04/04 13:53:45;;;;;;;1.90;1.20;;;11.80;86.30;;;;;;10408306;28;20046;-63
2023/04/04 13:58:45;;;;;;;5.90;1.13;;;11.80;86.40;;;;;;10403368;28;20041;-64
2023/04/04 14:03:46;;;;;;;2.28;1.10;;;11.90;86.60;;;;;;10407886;28;20014;-64
2023/04/04 14:08:47;;;;;;;2.35;1.13;;;12.00;86.70;;;;;;10412862;28;20045;-65
2023/04/04 14:13:50;;;;;;;2.00;1.10;;;12.10;86.60;;;;;;10410115;28;20117;-63
2023/04/04 14:18:51;;;;;;;2.53;1.10;;;12.20;86.70;;;;;;10418375;28;20029;-64
2023/04/04 14:23:51;;;;;;;1.65;0.88;;;12.20;86.70;;;;;;10415610;28;20041;-63
2023/04/04 14:28:52;;;;;;;1.60;0.90;;;12.30;86.90;;;;;;10417301;28;20021;-64
2023/04/04 14:33:53;;;;;;;2.90;0.95;;;12.30;86.90;;;;;;10410745;28;20053;-65
2023/04/04 14:38:53;;;;;;;2.30;0.82;;;12.40;87.00;;;;;;10422365;28;20037;-63
2023/04/04 14:43:54;;;;;;;1.67;1.08;;;12.60;86.80;;;;;;10413148;28;20750;-64
2023/04/04 14:48:55;;;;;;;2.60;1.17;;;12.70;86.70;;;;;;10417031;28;20021;-64
2023/04/04 14:53:56;;;;;;;2.97;1.10;;;12.80;86.90;;;;;;10417867;28;20028;-66
2023/04/04 14:58:58;;;;;;;2.45;1.10;;;13.00;86.30;;;;;;10413062;28;20032;-64
2023/04/04 15:03:59;;;;;;;3.38;1.15;;;13.00;85.90;;;;;;10417711;28;20465;-64
2023/04/04 15:08:59;;;;;;;2.00;1.10;;;13.00;85.90;;;;;;10405033;28;20036;-65
2023/04/04 15:14:00;;;;;;;1.77;0.82;;;13.10;86.20;;;;;;10410677;28;20079;-63
2023/04/04 15:19:01;;;;;;;3.03;1.00;;;13.20;86.40;;;;;;10404876;28;20025;-65
2023/04/04 15:24:01;;;;;;;3.15;1.35;;;13.20;86.30;;;;;;10411199;28;20030;-65
2023/04/04 15:29:03;;;;;;;2.13;1.30;;;13.30;86.30;;;;;;10414265;28;20473;-65
2023/04/04 15:34:04;;;;;;;2.08;1.10;;;13.30;86.30;;;;;;10401355;28;20056;-65
2023/04/04 15:39:04;;;;;;;4.28;1.73;;;13.30;86.10;;;;;;10402382;28;20029;-64
2023/04/04 15:44:05;;;;;;;4.35;1.85;;;13.20;85.50;;;;;;10411863;28;20026;-64
2023/04/04 15:49:06;;;;;;;2.78;1.52;;;13.20;84.20;;;;;;10421687;28;20035;-64
2023/04/04 15:54:06;;;;;;;3.30;1.75;;;13.10;83.60;;;;;;10411917;28;20032;-66
2023/04/04 15:59:07;;;;;;;4.07;1.90;;;13.10;82.70;;;;;;10420842;28;20029;-65
2023/04/04 16:04:09;;;;;;;3.92;1.90;;;13.00;81.60;;;;;;10407047;28;20096;-66
2023/04/04 16:09:09;;;;;;;3.90;1.65;;;13.00;81.00;;;;;;10416310;28;20029;-63
2023/04/04 16:14:11;;;;;;;5.20;1.80;;;12.90;80.70;;;;;;10413080;28;20022;-64
2023/04/04 16:19:15;;;;;;;3.47;2.00;;;12.90;80.60;;;;;;10411567;28;20112;-64
2023/04/04 16:24:16;;;;;;;4.28;2.22;;;12.90;80.80;;;;;;10410864;28;20028;-65
2023/04/04 16:29:17;;;;;;;3.80;1.80;;;12.90;81.00;;;;;;10407959;28;20037;-64
2023/04/04 16:34:18;;;;;;;4.13;1.77;;;12.90;81.30;;;;;;10408313;28;20406;-65
2023/04/04 16:39:19;;;;;;;4.68;1.80;;;12.90;81.70;;;;;;10410093;28;20029;-65
2023/04/04 16:44:19;;;;;;;4.45;1.80;;;12.90;82.00;;;;;;10408652;28;20056;-64
2023/04/04 16:49:20;;;;;;;2.97;1.60;;;12.80;82.30;;;;;;10416512;28;20029;-65
2023/04/04 16:54:20;;;;;;;7.65;1.77;;;12.80;82.60;;;;;;10413919;28;20021;-63
2023/04/04 16:59:21;;;;;;;3.95;1.70;;;12.80;82.80;;;;;;10415310;28;20117;-63
2023/04/04 17:04:22;;;;;;;5.75;1.98;;;12.80;83.20;;;;;;10410565;28;20029;-64
2023/04/04 17:09:22;;;;;;;5.75;1.60;;;12.70;83.20;;;;;;10407085;28;20029;-63
2023/04/04 17:14:26;;;;;;;6.55;2.78;;;12.70;83.60;;;;;;10408475;28;20540;-65
2023/04/04 17:19:30;;;;;;;7.15;1.70;;;12.60;82.60;;;;;;10402386;28;20051;-63
2023/04/04 17:24:31;;;;;;;6.50;2.10;;;12.50;82.80;;;;;;10411990;28;20364;-65
2023/04/04 17:29:31;;;;;;;5.90;2.08;;;12.50;83.10;;;;;;10409054;28;20030;-64
2023/04/04 17:34:32;;;;;;;3.97;1.70;;;12.50;83.30;;;;;;10402776;28;20037;-65
2023/04/04 17:39:33;;;;;;;7.97;1.88;;;12.50;83.50;;;;;;10402782;28;20041;-64
2023/04/04 17:44:33;;;;;;;4.07;1.90;;;12.40;83.70;;;;;;10408325;28;20021;-65
2023/04/04 17:49:34;;;;;;;7.32;1.88;;;12.30;83.70;;;;;;10403032;28;20104;-65
2023/04/04 17:54:35;;;;;;;6.38;1.63;;;12.30;83.90;;;;;;10401663;28;21257;-64
2023/04/04 17:59:36;;;;;;;4.85;1.55;;;12.30;84.20;;;;;;10392437;28;20034;-64
2023/04/04 18:04:37;;;;;;;5.15;2.20;;;12.30;84.30;;;;;;10391901;28;20029;-65
2023/04/04 18:09:38;;;;;;;2.80;1.50;;;12.30;84.50;;;;;;10398628;28;20033;-63
2023/04/04 18:14:38;;;;;;;3.90;1.90;;;12.20;84.60;;;;;;10410454;28;20037;-64
2023/04/04 18:19:40;;;;;;;4.68;1.50;;;12.20;84.80;;;;;;10400685;28;20125;-65
2023/04/04 18:24:40;;;;;;;4.68;1.50;;;12.10;84.90;;;;;;10394902;28;20018;-65
2023/04/04 18:29:41;;;;;;;3.92;1.48;;;12.10;85.10;;;;;;10412884;28;20037;-64
2023/04/04 18:34:42;;;;;;;2.97;1.63;;;12.10;85.20;;;;;;10396921;28;20084;-64
2023/04/04 18:39:43;;;;;;;3.28;1.60;;;12.00;85.30;;;;;;10401250;28;20036;-65
2023/04/04 18:44:44;;;;;;;3.55;1.88;;;12.00;85.40;;;;;;10398244;28;20025;-64
2023/04/04 18:49:44;;;;;;;3.38;1.85;;;12.00;85.60;;;;;;10404101;28;20025;-63
2023/04/04 18:54:45;;;;;;;3.00;1.67;;;11.90;85.70;;;;;;10416113;28;20030;-65
2023/04/04 18:59:46;;;;;;;3.97;1.60;;;11.90;85.70;;;;;;10412659;28;20047;-65
2023/04/04 19:04:47;;;;;;;2.95;1.13;;;11.80;85.80;;;;;;10411296;28;20028;-63
2023/04/04 19:09:49;;;;;;;3.22;1.63;;;11.80;85.90;;;;;;10408630;28;20033;-65
2023/04/04 19:14:49;;;;;;;2.67;1.67;;;11.80;85.90;;;;;;10411953;28;20413;-63
2023/04/04 19:19:53;;;;;;;2.05;1.52;;;11.80;86.10;;;;;;10398164;28;20029;-65
2023/04/04 19:24:54;;;;;;;2.97;1.45;;;11.70;86.10;;;;;;10410648;28;20030;-64
2023/04/04 19:29:54;;;;;;;2.42;1.40;;;11.70;86.20;;;;;;10408211;28;20029;-63
2023/04/04 19:34:59;;;;;;;2.20;1.23;;;11.70;86.30;;;;;;10408286;28;20489;-65
2023/04/04 19:40:00;;;;;;;2.13;1.25;;;11.60;86.30;;;;;;10406767;28;20033;-65
2023/04/04 19:45:02;;;;;;;3.28;1.52;;;11.60;86.40;;;;;;10409228;28;20104;-65
2023/04/04 19:50:06;;;;;;;7.13;1.80;;;11.60;86.50;;;;;;10410711;28;20413;-65
2023/04/04 19:55:08;;;;;;;2.10;1.33;;;11.50;86.50;;;;;;10411432;28;20488;-65
2023/04/04 20:00:12;;;;;;;4.95;1.40;;;11.50;86.50;;;;;;10408633;28;20105;-64
2023/04/04 20:05:52;;;;;;;3.65;1.75;;;11.50;86.60;;;;;;10414531;28;20453;-65
2023/04/04 20:10:54;;;;;;;4.13;1.40;;;11.40;86.00;;;;;;10398295;28;20029;-64
2023/04/04 20:16:02;;;;;;;3.15;1.67;;;11.40;86.50;;;;;;10407203;28;20091;-64
2023/04/04 20:21:14;;;;;;;2.60;1.48;;;11.30;86.50;;;;;;10415981;28;20143;-65
2023/04/04 20:26:39;;;;;;;3.10;1.73;;;11.30;86.50;;;;;;10401722;28;20036;-65
2023/04/04 20:31:45;;;;;;;4.53;1.77;;;11.20;86.20;;;;;;10393294;28;20041;-65
2023/04/04 20:36:46;;;;;;;3.42;2.13;;;11.20;86.70;;;;;;10401543;28;20032;-64
2023/04/04 20:41:47;;;;;;;6.32;1.90;;;11.20;86.80;;;;;;10405886;28;20028;-64
2023/04/04 20:46:47;;;;;;;5.55;1.80;;;11.20;86.80;;;;;;10404884;28;20502;-64
2023/04/04 20:51:48;;;;;;;3.85;2.03;;;11.10;86.80;;;;;;10407576;28;20518;-65
2023/04/04 20:56:53;;;;;;;5.88;2.00;;;11.10;86.80;;;;;;10411800;28;20100;-65
2023/04/04 21:02:00;;;;;;;2.42;1.70;;;11.00;86.90;;;;;;10409894;28;20014;-64
2023/04/04 21:07:01;;;;;;;4.28;1.98;;;11.00;86.90;;;;;;10409833;28;20109;-65
2023/04/04 21:12:03;;;;;;;3.10;1.73;;;11.00;87.00;;;;;;10400173;28;20026;-64
2023/04/04 21:17:05;;;;;;;3.67;1.75;;;10.90;87.10;;;;;;10401028;28;20029;-65
2023/04/04 21:22:06;;;;;;;3.88;1.63;;;10.90;87.10;;;;;;10410408;28;20021;-64
2023/04/04 21:27:07;;;;;;;5.30;1.80;;;10.90;87.10;;;;;;10403124;28;20478;-65
2023/04/04 21:32:08;;;;;;;5.30;2.03;;;10.90;87.10;;;;;;10407788;28;20057;-64
2023/04/04 21:37:10;;;;;;;4.97;1.92;;;10.80;87.10;;;;;;10402561;28;20116;-65
2023/04/04 21:42:11;;;;;;;3.97;1.85;;;10.80;87.10;;;;;;10409673;28;20025;-65
2023/04/04 21:47:11;;;;;;;6.18;2.20;;;10.70;87.00;;;;;;10403171;28;20537;-64
2023/04/04 21:52:12;;;;;;;3.78;1.92;;;10.70;87.10;;;;;;10408033;28;20079;-65
2023/04/04 21:57:12;;;;;;;6.97;1.95;;;10.70;87.10;;;;;;10406680;28;20032;-65
2023/04/04 22:02:13;;;;;;;4.70;2.00;;;10.60;87.10;;;;;;10406662;28;20034;-64
2023/04/04 22:07:13;;;;;;;6.32;2.20;;;10.60;87.10;;;;;;10408704;28;20026;-66
2023/04/04 22:12:14;;;;;;;3.25;2.13;;;10.60;87.20;;;;;;10408242;28;20049;-65
2023/04/04 22:17:21;;;;;;;3.97;1.83;;;10.50;87.20;;;;;;10412147;28;20103;-64
2023/04/04 22:22:22;;;;;;;2.85;1.70;;;10.50;87.20;;;;;;10406354;28;20013;-65
2023/04/04 22:27:24;;;;;;;5.78;2.00;;;10.50;87.30;;;;;;10412109;28;20409;-65
2023/04/04 22:32:25;;;;;;;3.50;1.80;;;10.50;87.30;;;;;;10416302;28;20025;-65
2023/04/04 22:37:26;;;;;;;4.93;2.15;;;10.40;87.30;;;;;;10426313;28;20034;-65
2023/04/04 22:42:26;;;;;;;3.90;1.65;;;10.40;87.40;;;;;;10407946;28;20481;-65
2023/04/04 22:47:28;;;;;;;3.10;1.80;;;10.40;87.40;;;;;;10415036;28;20021;-63
2023/04/04 22:52:29;;;;;;;3.17;1.60;;;10.30;87.40;;;;;;10422170;28;20546;-64
2023/04/04 22:57:30;;;;;;;3.90;1.70;;;10.30;87.50;;;;;;10417742;28;20401;-65
2023/04/04 23:02:30;;;;;;;4.03;1.85;;;10.30;87.50;;;;;;10417148;28;20034;-66
2023/04/04 23:07:32;;;;;;;3.83;1.90;;;10.20;87.50;;;;;;10417830;28;20018;-65
2023/04/04 23:12:33;;;;;;;4.55;1.98;;;10.20;87.50;;;;;;10423503;28;20033;-64
2023/04/04 23:17:35;;;;;;;6.82;2.25;;;10.20;87.60;;;;;;10409596;28;20108;-65
2023/04/04 23:22:36;;;;;;;5.40;2.10;;;10.20;87.60;;;;;;10423365;28;20511;-65
2023/04/04 23:27:37;;;;;;;4.72;1.95;;;10.10;87.50;;;;;;10412682;28;20028;-63
2023/04/04 23:32:38;;;;;;;5.55;2.60;;;10.10;87.60;;;;;;10417013;28;20418;-65
2023/04/04 23:37:38;;;;;;;4.68;2.17;;;10.10;87.60;;;;;;10422747;28;20423;-65
2023/04/04 23:42:39;;;;;;;4.38;1.98;;;10.10;87.60;;;;;;10409805;28;20018;-64
2023/04/04 23:47:40;;;;;;;4.35;2.03;;;10.00;87.50;;;;;;10418273;28;20031;-63
2023/04/04 23:52:40;;;;;;;3.85;2.05;;;10.00;87.50;;;;;;10414682;28;20017;-65
2023/04/04 23:57:42;;;;;;;6.05;2.08;;;10.00;87.50;;;;;;10418916;28;20603;-66
